createdAt,value
2022-08-07T00:00:03.119Z,82.91
2022-08-07T00:01:01.386Z,82.29
2022-08-07T00:02:40.497Z,82.40
2022-08-07T00:03:02.773Z,82.43
2022-08-07T00:04:01.358Z,82.75
2022-08-07T00:05:01.390Z,82.64
2022-08-07T00:06:01.342Z,82.03
2022-08-07T00:07:05.295Z,82.54
2022-08-07T00:08:02.370Z,82.91
2022-08-07T00:09:17.205Z,82.43
2022-08-07T00:10:25.578Z,82.54
2022-08-07T00:11:03.320Z,83.25
2022-08-07T00:12:01.297Z,83.15
2022-08-07T00:13:02.487Z,83.25
2022-08-07T00:14:03.290Z,83.56
2022-08-07T00:15:01.304Z,83.42
2022-08-07T00:16:01.269Z,83.76
2022-08-07T00:17:01.671Z,83.36
2022-08-07T00:18:01.249Z,84.22
2022-08-07T00:19:01.246Z,83.87
2022-08-07T00:20:03.480Z,83.46
2022-08-07T00:21:03.438Z,83.46
2022-08-07T00:22:03.353Z,83.46
2022-08-07T00:23:01.223Z,82.95
2022-08-07T00:24:01.205Z,83.66
2022-08-07T00:25:01.237Z,83.05
2022-08-07T00:26:13.330Z,83.60
2022-08-07T00:27:07.378Z,83.09
2022-08-07T00:28:02.231Z,82.57
2022-08-07T00:29:01.175Z,83.29
2022-08-07T00:30:01.197Z,82.78
2022-08-07T00:31:01.150Z,82.68
2022-08-07T00:32:02.154Z,82.48
2022-08-07T00:33:01.164Z,82.48
2022-08-07T00:34:01.132Z,82.51
2022-08-07T00:35:01.130Z,83.03
2022-08-07T00:36:01.145Z,83.84
2022-08-07T00:37:01.112Z,84.05
2022-08-07T00:38:01.118Z,84.15
2022-08-07T00:39:01.137Z,83.98
2022-08-07T00:40:01.163Z,84.39
2022-08-07T00:41:01.101Z,84.39
2022-08-07T00:42:01.813Z,84.39
2022-08-07T00:43:01.065Z,83.68
2022-08-07T00:44:03.002Z,84.29
2022-08-07T00:45:02.051Z,84.29
2022-08-07T00:46:02.249Z,84.19
2022-08-07T00:47:01.042Z,83.88
2022-08-07T00:48:08.218Z,84.09
2022-08-07T00:49:02.343Z,84.64
2022-08-07T00:50:21.367Z,84.64
2022-08-07T00:51:02.028Z,85.25
2022-08-07T00:52:00.993Z,85.05
2022-08-07T00:53:00.978Z,85.25
2022-08-07T00:54:01.979Z,85.66
2022-08-07T00:55:05.006Z,86.52
2022-08-07T00:56:03.696Z,86.63
2022-08-07T00:57:00.969Z,86.73
2022-08-07T00:58:00.957Z,86.52
2022-08-07T00:59:00.946Z,86.42
2022-08-07T01:00:00.936Z,86.58
2022-08-07T01:01:01.023Z,86.38
2022-08-07T01:02:01.005Z,86.07
2022-08-07T01:03:00.918Z,85.80
2022-08-07T01:04:00.906Z,85.56
2022-08-07T01:05:00.898Z,85.50
2022-08-07T01:06:00.914Z,85.71
2022-08-07T01:07:00.878Z,85.80
2022-08-07T01:08:00.873Z,85.50
2022-08-07T01:09:01.526Z,85.60
2022-08-07T01:10:06.897Z,85.80
2022-08-07T01:12:04.580Z,85.71
2022-08-07T01:12:09.745Z,85.80
2022-08-07T01:13:01.831Z,86.73
2022-08-07T01:14:00.826Z,86.83
2022-08-07T01:15:03.711Z,86.52
2022-08-07T01:16:05.829Z,86.57
2022-08-07T01:17:04.192Z,86.77
2022-08-07T01:18:01.801Z,87.49
2022-08-07T01:19:00.782Z,87.08
2022-08-07T01:20:00.777Z,86.98
2022-08-07T01:21:00.806Z,86.87
2022-08-07T01:22:00.765Z,86.57
2022-08-07T01:23:12.395Z,86.57
2022-08-07T01:24:01.750Z,87.12
2022-08-07T01:25:00.742Z,87.53
2022-08-07T01:26:00.768Z,86.98
2022-08-07T01:27:00.721Z,87.49
2022-08-07T01:28:00.718Z,87.49
2022-08-07T01:29:33.906Z,87.43
2022-08-07T01:30:00.891Z,87.49
2022-08-07T01:31:00.699Z,87.63
2022-08-07T01:32:00.715Z,87.79
2022-08-07T01:33:00.687Z,87.49
2022-08-07T01:34:00.676Z,87.38
2022-08-07T01:35:00.667Z,87.49
2022-08-07T01:36:06.311Z,87.38
2022-08-07T01:37:01.677Z,87.18
2022-08-07T01:38:00.662Z,87.59
2022-08-07T01:39:00.698Z,88.10
2022-08-07T01:40:00.815Z,88.00
2022-08-07T01:41:00.621Z,88.10
2022-08-07T01:42:36.766Z,87.79
2022-08-07T01:43:01.602Z,87.90
2022-08-07T01:44:00.595Z,88.00
2022-08-07T01:45:00.587Z,88.21
2022-08-07T01:46:00.599Z,88.10
2022-08-07T01:47:00.983Z,87.84
2022-08-07T01:48:30.494Z,88.21
2022-08-07T01:49:02.358Z,88.00
2022-08-07T01:50:00.706Z,87.79
2022-08-07T01:51:24.283Z,88.10
2022-08-07T01:52:04.745Z,87.53
2022-08-07T01:53:00.541Z,87.32
2022-08-07T01:54:09.412Z,88.04
2022-08-07T01:55:02.021Z,87.63
2022-08-07T01:56:00.500Z,87.84
2022-08-07T01:57:01.591Z,87.94
2022-08-07T01:58:01.350Z,87.94
2022-08-07T01:59:01.501Z,88.24
2022-08-07T02:00:00.477Z,88.66
2022-08-07T02:01:10.130Z,88.86
2022-08-07T02:02:04.255Z,88.96
2022-08-07T02:03:19.274Z,88.35
2022-08-07T02:04:01.538Z,88.66
2022-08-07T02:05:00.448Z,88.45
2022-08-07T02:06:01.027Z,88.14
2022-08-07T02:07:00.451Z,88.14
2022-08-07T02:08:00.414Z,88.35
2022-08-07T02:09:00.410Z,88.24
2022-08-07T02:10:00.404Z,87.84
2022-08-07T02:11:00.383Z,88.24
2022-08-07T02:12:04.948Z,88.35
2022-08-07T02:13:00.382Z,88.04
2022-08-07T02:14:02.332Z,88.39
2022-08-07T02:15:00.613Z,88.70
2022-08-07T02:16:00.356Z,88.29
2022-08-07T02:17:00.372Z,88.49
2022-08-07T02:18:00.339Z,88.70
2022-08-07T02:19:00.337Z,88.59
2022-08-07T02:20:04.348Z,88.59
2022-08-07T02:21:01.314Z,88.70
2022-08-07T02:22:01.331Z,88.49
2022-08-07T02:23:00.301Z,88.64
2022-08-07T02:24:00.295Z,89.21
2022-08-07T02:25:00.284Z,89.21
2022-08-07T02:26:31.791Z,89.31
2022-08-07T02:27:02.425Z,89.11
2022-08-07T02:28:00.257Z,88.80
2022-08-07T02:29:00.262Z,88.90
2022-08-07T02:30:00.242Z,89.01
2022-08-07T02:31:00.231Z,89.21
2022-08-07T02:32:01.350Z,88.90
2022-08-07T02:33:09.076Z,89.11
2022-08-07T02:34:03.170Z,89.11
2022-08-07T02:35:00.807Z,89.21
2022-08-07T02:36:30.302Z,89.31
2022-08-07T02:37:01.205Z,89.52
2022-08-07T02:38:00.178Z,89.21
2022-08-07T02:39:00.282Z,89.52
2022-08-07T02:40:11.698Z,89.27
2022-08-07T02:41:01.221Z,89.01
2022-08-07T02:42:00.181Z,88.80
2022-08-07T02:43:00.147Z,88.70
2022-08-07T02:44:00.133Z,88.80
2022-08-07T02:45:00.124Z,88.80
2022-08-07T02:46:02.104Z,88.70
2022-08-07T02:47:00.974Z,89.21
2022-08-07T02:48:01.611Z,89.01
2022-08-07T02:49:00.099Z,89.21
2022-08-07T02:50:00.490Z,89.04
2022-08-07T02:51:01.077Z,89.36
2022-08-07T02:52:00.114Z,89.21
2022-08-07T02:53:03.220Z,89.25
2022-08-07T02:54:00.068Z,89.46
2022-08-07T02:55:00.051Z,89.04
2022-08-07T02:56:02.353Z,89.15
2022-08-07T02:57:01.058Z,89.25
2022-08-07T02:58:00.030Z,89.31
2022-08-07T02:59:00.016Z,89.46
2022-08-07T03:00:01.247Z,89.46
2022-08-07T03:01:00.075Z,89.46
2022-08-07T03:02:02.239Z,89.46
2022-08-07T03:02:59.990Z,89.36
2022-08-07T03:04:03.182Z,89.04
2022-08-07T03:05:05.219Z,89.31
2022-08-07T03:06:00.981Z,89.25
2022-08-07T03:07:07.378Z,89.56
2022-08-07T03:08:05.325Z,89.36
2022-08-07T03:09:00.942Z,89.36
2022-08-07T03:09:59.935Z,89.11
2022-08-07T03:10:59.929Z,89.56
2022-08-07T03:12:02.580Z,89.66
2022-08-07T03:12:59.916Z,89.25
2022-08-07T03:14:01.742Z,89.87
2022-08-07T03:15:02.377Z,89.91
2022-08-07T03:16:00.892Z,90.08
2022-08-07T03:16:59.913Z,90.18
2022-08-07T03:17:59.879Z,90.18
2022-08-07T03:18:59.867Z,90.12
2022-08-07T03:19:59.862Z,90.12
2022-08-07T03:20:59.849Z,90.42
2022-08-07T03:21:59.872Z,90.22
2022-08-07T03:22:59.838Z,90.57
2022-08-07T03:24:19.790Z,90.36
2022-08-07T03:25:00.830Z,90.36
2022-08-07T03:26:00.010Z,90.78
2022-08-07T03:26:59.822Z,91.60
2022-08-07T03:28:09.624Z,91.80
2022-08-07T03:29:00.794Z,91.14
2022-08-07T03:29:59.779Z,91.29
2022-08-07T03:30:59.769Z,91.70
2022-08-07T03:31:59.790Z,90.94
2022-08-07T03:32:59.750Z,90.67
2022-08-07T03:33:59.747Z,90.83
2022-08-07T03:35:01.001Z,91.29
2022-08-07T03:36:00.731Z,91.45
2022-08-07T03:36:59.764Z,91.29
2022-08-07T03:38:00.729Z,91.60
2022-08-07T03:39:05.526Z,91.19
2022-08-07T03:40:15.626Z,90.88
2022-08-07T03:41:00.787Z,91.08
2022-08-07T03:42:00.654Z,91.39
2022-08-07T03:42:59.683Z,91.39
2022-08-07T03:43:59.680Z,91.64
2022-08-07T03:44:59.673Z,92.01
2022-08-07T03:45:59.662Z,91.70
2022-08-07T03:47:11.429Z,92.87
2022-08-07T03:48:00.642Z,93.08
2022-08-07T03:49:02.743Z,92.46
2022-08-07T03:49:59.669Z,92.52
2022-08-07T03:50:59.617Z,92.42
2022-08-07T03:52:01.135Z,92.63
2022-08-07T03:52:59.611Z,92.42
2022-08-07T03:54:32.940Z,92.57
2022-08-07T03:55:07.170Z,92.36
2022-08-07T03:56:03.993Z,92.46
2022-08-07T03:57:03.598Z,92.87
2022-08-07T03:58:35.151Z,92.42
2022-08-07T03:59:08.202Z,92.73
2022-08-07T04:00:01.637Z,92.73
2022-08-07T04:01:00.669Z,92.52
2022-08-07T04:01:59.634Z,92.73
2022-08-07T04:02:59.632Z,92.73
2022-08-07T04:03:59.521Z,92.46
2022-08-07T04:05:00.531Z,92.16
2022-08-07T04:05:59.916Z,92.87
2022-08-07T04:07:00.122Z,92.77
2022-08-07T04:07:59.488Z,92.11
2022-08-07T04:08:59.481Z,92.52
2022-08-07T04:09:59.473Z,92.32
2022-08-07T04:12:23.849Z,92.01
2022-08-07T04:12:27.947Z,92.42
2022-08-07T04:13:00.452Z,92.97
2022-08-07T04:14:10.775Z,92.11
2022-08-07T04:15:00.551Z,92.11
2022-08-07T04:15:59.434Z,92.11
2022-08-07T04:16:59.423Z,92.83
2022-08-07T04:18:57.735Z,92.73
2022-08-07T04:19:01.553Z,91.91
2022-08-07T04:20:00.391Z,91.70
2022-08-07T04:21:00.402Z,91.49
2022-08-07T04:22:08.621Z,91.70
2022-08-07T04:23:01.806Z,92.21
2022-08-07T04:24:06.075Z,92.11
2022-08-07T04:25:01.452Z,92.21
2022-08-07T04:25:59.368Z,91.80
2022-08-07T04:26:59.350Z,91.64
2022-08-07T04:28:00.846Z,91.70
2022-08-07T04:28:59.335Z,92.01
2022-08-07T04:30:01.963Z,91.60
2022-08-07T04:30:59.362Z,91.45
2022-08-07T04:32:03.192Z,90.89
2022-08-07T04:33:00.348Z,91.20
2022-08-07T04:33:59.299Z,90.55
2022-08-07T04:34:59.306Z,89.84
2022-08-07T04:35:59.282Z,88.84
2022-08-07T04:36:59.285Z,85.99
2022-08-07T04:38:06.957Z,84.63
2022-08-07T04:39:00.330Z,83.36
2022-08-07T04:40:00.134Z,83.22
2022-08-07T04:40:59.246Z,82.50
2022-08-07T04:41:59.233Z,81.10
2022-08-07T04:43:02.056Z,80.79
2022-08-07T04:44:12.106Z,79.63
2022-08-07T04:45:03.217Z,80.79
2022-08-07T04:46:01.523Z,80.24
2022-08-07T04:47:04.515Z,79.16
2022-08-07T04:48:05.577Z,80.38
2022-08-07T04:49:01.590Z,80.18
2022-08-07T04:50:04.592Z,80.55
2022-08-07T04:51:00.165Z,78.77
2022-08-07T04:51:59.159Z,78.74
2022-08-07T04:52:59.181Z,77.55
2022-08-07T04:54:05.895Z,76.04
2022-08-07T04:55:00.133Z,74.11
2022-08-07T04:58:09.998Z,73.57
2022-08-07T04:58:14.297Z,74.65
2022-08-07T04:58:15.788Z,74.35
2022-08-07T05:00:11.510Z,75.92
2022-08-07T05:01:00.142Z,76.32
2022-08-07T05:01:59.087Z,75.16
2022-08-07T05:02:59.102Z,75.13
2022-08-07T05:04:06.760Z,76.76
2022-08-07T05:05:00.074Z,75.95
2022-08-07T05:05:59.051Z,74.83
2022-08-07T05:06:59.191Z,76.76
2022-08-07T05:07:59.062Z,76.79
2022-08-07T05:09:01.895Z,74.38
2022-08-07T05:09:59.028Z,74.58
2022-08-07T05:11:02.541Z,74.96
2022-08-07T05:12:02.411Z,73.43
2022-08-07T05:14:45.553Z,74.24
2022-08-07T05:14:52.899Z,71.70
2022-08-07T05:15:04.229Z,67.89
2022-08-07T05:15:59.981Z,69.34
2022-08-07T05:16:58.975Z,72.25
2022-08-07T05:18:00.543Z,73.23
2022-08-07T05:18:58.951Z,77.95
2022-08-07T05:19:58.946Z,76.86
2022-08-07T05:20:58.942Z,75.84
2022-08-07T05:22:01.409Z,73.74
2022-08-07T05:22:58.951Z,71.53
2022-08-07T05:23:58.913Z,69.00
2022-08-07T05:24:59.744Z,68.46
2022-08-07T05:26:15.553Z,72.72
2022-08-07T05:26:59.887Z,72.89
2022-08-07T05:28:03.523Z,70.28
2022-08-07T05:28:59.878Z,71.36
2022-08-07T05:29:58.913Z,74.28
2022-08-07T05:30:58.861Z,76.79
2022-08-07T05:31:58.853Z,78.05
2022-08-07T05:32:58.868Z,77.84
2022-08-07T05:34:04.264Z,75.53
2022-08-07T05:34:59.839Z,73.39
2022-08-07T05:35:58.828Z,72.31
2022-08-07T05:36:58.823Z,70.42
2022-08-07T05:38:09.634Z,67.89
2022-08-07T05:40:07.111Z,67.55
2022-08-07T05:40:14.104Z,65.90
2022-08-07T05:41:00.849Z,69.07
2022-08-07T05:42:00.490Z,69.27
2022-08-07T05:42:58.799Z,68.84
2022-08-07T05:44:12.191Z,67.72
2022-08-07T05:45:14.455Z,66.21
2022-08-07T05:45:59.749Z,65.91
2022-08-07T05:47:00.329Z,66.91
2022-08-07T05:48:01.242Z,67.85
2022-08-07T05:48:59.503Z,70.28
2022-08-07T05:49:58.717Z,74.89
2022-08-07T05:50:58.706Z,76.62
2022-08-07T05:51:58.698Z,76.65
2022-08-07T05:52:58.719Z,74.28
2022-08-07T05:54:13.523Z,74.62
2022-08-07T05:55:02.960Z,72.82
2022-08-07T05:56:03.162Z,74.96
2022-08-07T05:56:58.803Z,74.96
2022-08-07T05:57:58.686Z,75.80
2022-08-07T05:58:58.642Z,73.46
2022-08-07T05:59:58.637Z,71.57
2022-08-07T06:00:58.642Z,71.53
2022-08-07T06:01:59.709Z,71.77
2022-08-07T06:02:58.610Z,71.06
2022-08-07T06:04:01.298Z,73.50
2022-08-07T06:04:58.601Z,74.44
2022-08-07T06:05:58.626Z,76.55
2022-08-07T06:07:03.823Z,77.64
2022-08-07T06:08:13.138Z,79.85
2022-08-07T06:08:59.571Z,80.49
2022-08-07T06:10:04.767Z,78.21
2022-08-07T06:10:59.549Z,78.72
2022-08-07T06:11:59.547Z,79.13
2022-08-07T06:12:58.538Z,77.06
2022-08-07T06:14:13.139Z,77.80
2022-08-07T06:15:05.286Z,75.73
2022-08-07T06:15:59.518Z,76.61
2022-08-07T06:16:58.507Z,74.54
2022-08-07T06:17:58.503Z,74.54
2022-08-07T06:18:58.532Z,74.58
2022-08-07T06:20:04.171Z,77.47
2022-08-07T06:22:14.587Z,78.72
2022-08-07T06:22:16.585Z,79.27
2022-08-07T06:23:02.463Z,81.30
2022-08-07T06:24:37.456Z,80.11
2022-08-07T06:25:01.550Z,80.08
2022-08-07T06:25:58.440Z,80.72
2022-08-07T06:26:58.427Z,78.75
2022-08-07T06:28:02.848Z,77.45
2022-08-07T06:29:01.343Z,77.18
2022-08-07T06:29:58.435Z,77.34
2022-08-07T06:30:58.629Z,75.99
2022-08-07T06:31:58.396Z,74.04
2022-08-07T06:32:58.386Z,74.68
2022-08-07T06:33:58.406Z,75.96
2022-08-07T06:34:58.371Z,75.96
2022-08-07T06:36:12.061Z,76.14
2022-08-07T06:36:59.357Z,78.06
2022-08-07T06:37:58.377Z,76.34
2022-08-07T06:40:15.632Z,76.91
2022-08-07T06:40:16.591Z,76.20
2022-08-07T06:40:59.391Z,76.54
2022-08-07T06:42:02.440Z,76.44
2022-08-07T06:42:58.307Z,77.09
2022-08-07T06:44:01.471Z,77.73
2022-08-07T06:44:59.300Z,79.36
2022-08-07T06:46:01.017Z,78.14
2022-08-07T06:47:12.057Z,77.80
2022-08-07T06:47:59.796Z,78.00
2022-08-07T06:48:58.290Z,78.13
2022-08-07T06:49:58.969Z,75.93
2022-08-07T06:50:58.251Z,76.16
2022-08-07T06:52:02.865Z,74.51
2022-08-07T06:53:00.261Z,73.39
2022-08-07T06:55:27.397Z,72.08
2022-08-07T06:55:33.047Z,73.56
2022-08-07T06:56:01.505Z,71.37
2022-08-07T06:56:58.205Z,72.11
2022-08-07T06:57:59.327Z,73.90
2022-08-07T07:00:14.595Z,72.21
2022-08-07T07:00:15.072Z,72.34
2022-08-07T07:00:59.179Z,72.81
2022-08-07T07:01:58.392Z,74.30
2022-08-07T07:03:01.353Z,72.38
2022-08-07T07:04:27.648Z,72.28
2022-08-07T07:04:59.134Z,69.82
2022-08-07T07:06:02.960Z,70.09
2022-08-07T07:07:01.125Z,71.80
2022-08-07T07:07:59.859Z,72.34
2022-08-07T07:08:59.099Z,69.98
2022-08-07T07:09:58.092Z,69.89
2022-08-07T07:10:59.000Z,68.91
2022-08-07T07:12:07.607Z,69.52
2022-08-07T07:12:59.099Z,65.18
2022-08-07T07:14:01.411Z,66.62
2022-08-07T07:14:58.050Z,65.48
2022-08-07T07:15:58.041Z,63.79
2022-08-07T07:16:58.036Z,63.85
2022-08-07T07:17:58.162Z,65.20
2022-08-07T07:18:58.017Z,63.82
2022-08-07T07:19:59.152Z,64.06
2022-08-07T07:20:59.009Z,65.91
2022-08-07T07:22:04.633Z,64.56
2022-08-07T07:24:10.106Z,63.82
2022-08-07T07:24:10.106Z,63.29
2022-08-07T07:25:13.912Z,63.56
2022-08-07T07:26:34.280Z,61.11
2022-08-07T07:26:58.955Z,63.33
2022-08-07T07:28:02.145Z,62.29
2022-08-07T07:29:56.216Z,62.32
2022-08-07T07:30:09.749Z,62.32
2022-08-07T07:30:58.944Z,60.68
2022-08-07T07:31:57.937Z,60.75
2022-08-07T07:32:57.917Z,60.45
2022-08-07T07:33:57.937Z,62.05
2022-08-07T07:34:57.898Z,63.16
2022-08-07T07:36:05.206Z,61.61
2022-08-07T07:36:58.887Z,60.91
2022-08-07T07:38:02.415Z,61.44
2022-08-07T07:38:58.932Z,62.63
2022-08-07T07:39:57.918Z,61.99
2022-08-07T07:41:01.943Z,62.40
2022-08-07T07:42:09.064Z,61.61
2022-08-07T07:43:11.747Z,62.08
2022-08-07T07:44:17.122Z,61.88
2022-08-07T07:44:58.830Z,62.88
2022-08-07T07:46:36.790Z,62.25
2022-08-07T07:47:11.985Z,61.99
2022-08-07T07:47:59.798Z,60.45
2022-08-07T07:48:59.874Z,60.96
2022-08-07T07:50:32.477Z,59.44
2022-08-07T07:50:58.781Z,60.98
2022-08-07T07:51:59.623Z,60.45
2022-08-07T07:52:57.776Z,59.75
2022-08-07T07:53:57.782Z,60.45
2022-08-07T07:54:57.760Z,59.14
2022-08-07T07:56:01.039Z,59.67
2022-08-07T07:56:57.730Z,59.67
2022-08-07T07:57:58.290Z,58.06
2022-08-07T07:58:57.744Z,59.64
2022-08-07T07:59:57.708Z,59.44
2022-08-07T08:00:57.713Z,59.97
2022-08-07T08:02:03.812Z,60.35
2022-08-07T08:03:05.187Z,59.31
2022-08-07T08:04:06.395Z,58.91
2022-08-07T08:04:59.114Z,59.75
2022-08-07T08:05:57.659Z,59.82
2022-08-07T08:07:02.723Z,59.59
2022-08-07T08:08:00.881Z,59.06
2022-08-07T08:08:57.680Z,58.45
2022-08-07T08:10:04.826Z,57.55
2022-08-07T08:10:58.618Z,58.25
2022-08-07T08:12:02.639Z,58.75
2022-08-07T08:12:59.859Z,58.58
2022-08-07T08:13:57.628Z,57.82
2022-08-07T08:14:57.588Z,57.29
2022-08-07T08:16:00.725Z,56.51
2022-08-07T08:17:58.835Z,55.55
2022-08-07T08:18:36.432Z,55.78
2022-08-07T08:20:17.082Z,55.16
2022-08-07T08:20:18.007Z,53.92
2022-08-07T08:20:58.550Z,55.99
2022-08-07T08:22:03.049Z,55.99
2022-08-07T08:22:58.538Z,55.81
2022-08-07T08:23:57.560Z,56.19
2022-08-07T08:25:18.256Z,55.88
2022-08-07T08:26:04.602Z,55.76
2022-08-07T08:26:58.525Z,55.66
2022-08-07T08:28:01.975Z,55.91
2022-08-07T08:28:58.506Z,55.58
2022-08-07T08:29:57.475Z,55.26
2022-08-07T08:30:57.491Z,55.73
2022-08-07T08:31:58.944Z,54.02
2022-08-07T08:32:58.463Z,55.20
2022-08-07T08:33:57.904Z,53.92
2022-08-07T08:34:57.442Z,55.03
2022-08-07T08:35:57.431Z,55.03
2022-08-07T08:36:58.065Z,54.77
2022-08-07T08:38:01.362Z,53.77
2022-08-07T08:38:59.087Z,53.20
2022-08-07T08:39:58.686Z,54.10
2022-08-07T08:40:57.402Z,55.00
2022-08-07T08:41:59.355Z,53.70
2022-08-07T08:42:57.377Z,54.02
2022-08-07T08:43:59.349Z,53.90
2022-08-07T08:44:57.386Z,52.80
2022-08-07T08:46:00.690Z,52.69
2022-08-07T08:46:57.362Z,54.10
2022-08-07T08:47:57.387Z,52.94
2022-08-07T08:48:57.360Z,52.14
2022-08-07T08:50:05.178Z,54.02
2022-08-07T08:50:58.327Z,51.87
2022-08-07T08:52:13.240Z,51.09
2022-08-07T08:52:58.302Z,50.92
2022-08-07T08:53:57.317Z,52.24
2022-08-07T08:54:57.295Z,50.84
2022-08-07T08:55:59.013Z,51.64
2022-08-07T08:56:57.271Z,52.14
2022-08-07T08:57:57.272Z,50.81
2022-08-07T08:58:57.283Z,50.69
2022-08-07T08:59:57.428Z,50.89
2022-08-07T09:00:57.264Z,50.64
2022-08-07T09:01:59.564Z,49.46
2022-08-07T09:02:57.563Z,49.91
2022-08-07T09:03:57.248Z,49.91
2022-08-07T09:04:57.213Z,50.34
2022-08-07T09:05:57.205Z,50.24
2022-08-07T09:06:57.214Z,50.81
2022-08-07T09:07:57.648Z,49.01
2022-08-07T09:08:57.220Z,49.29
2022-08-07T09:09:57.454Z,49.58
2022-08-07T09:10:57.165Z,49.49
2022-08-07T09:12:08.907Z,49.61
2022-08-07T09:12:59.143Z,49.69
2022-08-07T09:13:57.167Z,48.69
2022-08-07T09:14:58.873Z,48.08
2022-08-07T09:16:23.408Z,48.11
2022-08-07T09:16:58.119Z,48.71
2022-08-07T09:17:59.656Z,48.57
2022-08-07T09:18:58.621Z,47.44
2022-08-07T09:19:57.092Z,47.99
2022-08-07T09:20:57.843Z,47.66
2022-08-07T09:22:23.102Z,47.66
2022-08-07T09:24:30.792Z,48.14
2022-08-07T09:24:33.073Z,47.46
2022-08-07T09:24:59.305Z,47.96
2022-08-07T09:25:57.049Z,48.26
2022-08-07T09:26:57.220Z,47.44
2022-08-07T09:28:01.262Z,47.52
2022-08-07T09:30:00.584Z,46.72
2022-08-07T09:30:06.432Z,47.52
2022-08-07T09:30:58.011Z,47.49
2022-08-07T09:31:57.008Z,45.69
2022-08-07T09:32:57.002Z,47.31
2022-08-07T09:33:58.202Z,47.79
2022-08-07T09:34:57.017Z,46.35
2022-08-07T09:36:04.124Z,47.53
2022-08-07T09:36:57.973Z,45.71
2022-08-07T09:37:56.991Z,45.59
2022-08-07T09:38:56.955Z,44.15
2022-08-07T09:39:57.839Z,44.42
2022-08-07T09:40:56.935Z,45.24
2022-08-07T09:41:59.045Z,46.42
2022-08-07T09:42:57.916Z,44.89
2022-08-07T09:44:05.871Z,46.01
2022-08-07T09:47:23.902Z,46.39
2022-08-07T09:47:50.043Z,43.99
2022-08-07T09:47:51.180Z,44.39
2022-08-07T09:48:02.812Z,44.20
2022-08-07T09:50:01.083Z,44.12
2022-08-07T09:50:04.153Z,45.20
2022-08-07T09:50:59.481Z,43.55
2022-08-07T09:52:10.428Z,42.33
2022-08-07T09:52:57.848Z,42.93
2022-08-07T09:54:00.614Z,42.41
2022-08-07T09:54:58.883Z,42.25
2022-08-07T09:56:03.106Z,42.27
2022-08-07T09:56:57.818Z,42.19
2022-08-07T09:57:56.830Z,42.02
2022-08-07T09:58:56.799Z,42.21
2022-08-07T10:00:01.464Z,41.77
2022-08-07T10:00:58.787Z,42.15
2022-08-07T10:01:56.777Z,41.74
2022-08-07T10:02:56.776Z,42.05
2022-08-07T10:04:06.292Z,42.69
2022-08-07T10:04:57.835Z,42.18
2022-08-07T10:05:59.133Z,43.09
2022-08-07T10:06:57.750Z,42.10
2022-08-07T10:07:57.146Z,41.69
2022-08-07T10:08:56.732Z,42.29
2022-08-07T10:10:00.972Z,41.97
2022-08-07T10:11:17.003Z,41.67
2022-08-07T10:12:01.723Z,42.07
2022-08-07T10:12:56.741Z,42.68
2022-08-07T10:14:01.668Z,41.67
2022-08-07T10:14:57.715Z,41.97
2022-08-07T10:15:56.682Z,43.05
2022-08-07T10:16:59.541Z,42.33
2022-08-07T10:18:02.883Z,41.33
2022-08-07T10:18:57.670Z,41.33
2022-08-07T10:19:56.675Z,41.75
2022-08-07T10:20:56.637Z,41.96
2022-08-07T10:22:15.965Z,42.15
2022-08-07T10:22:57.634Z,41.67
2022-08-07T10:24:05.477Z,42.19
2022-08-07T10:24:57.632Z,42.91
2022-08-07T10:25:56.614Z,42.90
2022-08-07T10:26:56.664Z,42.27
2022-08-07T10:27:56.586Z,42.07
2022-08-07T10:28:56.611Z,42.27
2022-08-07T10:29:56.611Z,41.46
2022-08-07T10:30:56.575Z,41.03
2022-08-07T10:31:56.565Z,40.32
2022-08-07T10:32:59.994Z,40.34
2022-08-07T10:34:06.968Z,41.16
2022-08-07T10:34:57.581Z,41.08
2022-08-07T10:36:10.820Z,42.18
2022-08-07T10:36:58.534Z,40.44
2022-08-07T10:38:20.983Z,40.44
2022-08-07T10:38:57.510Z,40.42
2022-08-07T10:39:57.568Z,41.11
2022-08-07T10:40:57.493Z,40.45
2022-08-07T10:42:09.207Z,40.75
2022-08-07T10:42:57.491Z,40.06
2022-08-07T10:44:07.265Z,41.66
2022-08-07T10:44:57.488Z,40.72
2022-08-07T10:45:57.643Z,40.12
2022-08-07T10:46:56.458Z,40.25
2022-08-07T10:48:03.056Z,40.83
2022-08-07T10:48:58.448Z,40.34
2022-08-07T10:49:56.463Z,39.12
2022-08-07T10:50:56.427Z,39.12
2022-08-07T10:52:02.292Z,40.40
2022-08-07T10:52:57.413Z,39.42
2022-08-07T10:54:00.096Z,39.00
2022-08-07T10:55:01.839Z,39.12
2022-08-07T10:55:57.379Z,40.72
2022-08-07T10:56:56.373Z,39.02
2022-08-07T10:57:56.573Z,39.42
2022-08-07T10:58:59.326Z,40.12
2022-08-07T10:59:56.357Z,38.40
2022-08-07T11:00:56.707Z,38.68
2022-08-07T11:02:04.786Z,38.35
2022-08-07T11:02:57.366Z,37.97
2022-08-07T11:04:16.581Z,38.50
2022-08-07T11:05:10.650Z,39.30
2022-08-07T11:06:00.159Z,38.09
2022-08-07T11:07:03.508Z,38.29
2022-08-07T11:08:00.715Z,39.38
2022-08-07T11:08:57.278Z,38.48
2022-08-07T11:10:07.924Z,38.00
2022-08-07T11:11:00.073Z,38.39
2022-08-07T11:11:59.271Z,39.18
2022-08-07T11:13:02.216Z,38.56
2022-08-07T11:14:46.081Z,38.40
2022-08-07T11:15:00.583Z,37.62
2022-08-07T11:15:56.257Z,38.32
2022-08-07T11:17:01.112Z,40.22
2022-08-07T11:18:03.605Z,38.80
2022-08-07T11:18:57.220Z,39.40
2022-08-07T11:19:56.198Z,39.20
2022-08-07T11:20:56.229Z,40.00
2022-08-07T11:21:56.186Z,39.48
2022-08-07T11:22:56.192Z,38.46
2022-08-07T11:23:56.188Z,38.09
2022-08-07T11:24:56.177Z,38.40
2022-08-07T11:25:56.185Z,38.76
2022-08-07T11:26:57.148Z,40.14
2022-08-07T11:28:02.585Z,37.92
2022-08-07T11:28:57.141Z,37.43
2022-08-07T11:30:17.544Z,38.43
2022-08-07T11:30:57.146Z,37.71
2022-08-07T11:31:56.107Z,37.32
2022-08-07T11:32:56.102Z,37.37
2022-08-07T11:34:00.082Z,38.27
2022-08-07T11:34:56.081Z,37.17
2022-08-07T11:35:59.793Z,37.82
2022-08-07T11:36:56.364Z,38.12
2022-08-07T11:38:09.948Z,37.92
2022-08-07T11:38:57.062Z,37.54
2022-08-07T11:39:59.843Z,38.22
2022-08-07T11:40:57.037Z,37.51
2022-08-07T11:42:01.646Z,37.79
2022-08-07T11:42:57.018Z,37.68
2022-08-07T11:44:11.811Z,37.79
2022-08-07T11:44:58.005Z,38.18
2022-08-07T11:45:56.016Z,37.87
2022-08-07T11:46:55.990Z,37.51
2022-08-07T11:47:59.440Z,37.52
2022-08-07T11:49:51.420Z,38.50
2022-08-07T11:50:30.711Z,38.39
2022-08-07T11:50:57.688Z,38.46
2022-08-07T11:51:55.949Z,38.37
2022-08-07T11:52:55.935Z,38.15
2022-08-07T11:54:01.643Z,38.45
2022-08-07T11:54:56.957Z,38.56
2022-08-07T11:56:26.074Z,39.36
2022-08-07T11:56:56.904Z,39.53
2022-08-07T11:57:59.818Z,38.59
2022-08-07T11:58:56.896Z,37.90
2022-08-07T12:00:12.466Z,37.51
2022-08-07T12:01:02.584Z,38.56
2022-08-07T12:02:01.006Z,38.76
2022-08-07T12:02:55.943Z,39.04
2022-08-07T12:03:55.881Z,37.62
2022-08-07T12:04:55.904Z,37.34
2022-08-07T12:05:58.395Z,37.12
2022-08-07T12:07:02.387Z,37.57
2022-08-07T12:08:03.594Z,38.90
2022-08-07T12:08:57.033Z,39.36
2022-08-07T12:09:55.840Z,38.54
2022-08-07T12:11:08.002Z,37.93
2022-08-07T12:12:10.365Z,37.45
2022-08-07T12:12:56.788Z,37.59
2022-08-07T12:13:55.793Z,38.37
2022-08-07T12:15:01.524Z,37.87
2022-08-07T12:16:07.055Z,37.97
2022-08-07T12:16:56.760Z,38.39
2022-08-07T12:17:59.228Z,38.27
2022-08-07T12:18:56.757Z,38.76
2022-08-07T12:20:04.104Z,38.37
2022-08-07T12:20:56.767Z,37.77
2022-08-07T12:22:39.310Z,38.25
2022-08-07T12:22:58.404Z,38.73
2022-08-07T12:24:07.634Z,37.93
2022-08-07T12:25:02.539Z,37.45
2022-08-07T12:26:02.869Z,38.37
2022-08-07T12:26:56.687Z,39.64
2022-08-07T12:28:09.742Z,37.87
2022-08-07T12:28:56.663Z,38.27
2022-08-07T12:29:55.656Z,38.25
2022-08-07T12:30:55.687Z,37.83
2022-08-07T12:32:03.715Z,38.43
2022-08-07T12:32:56.629Z,38.05
2022-08-07T12:33:56.088Z,38.25
2022-08-07T12:34:56.402Z,38.23
2022-08-07T12:35:57.764Z,38.45
2022-08-07T12:36:55.631Z,38.46
2022-08-07T12:38:11.701Z,38.45
2022-08-07T12:38:57.550Z,39.03
2022-08-07T12:39:57.411Z,37.83
2022-08-07T12:40:55.658Z,38.23
2022-08-07T12:41:55.579Z,37.23
2022-08-07T12:42:57.300Z,37.65
2022-08-07T12:44:04.258Z,38.33
2022-08-07T12:44:56.947Z,37.43
2022-08-07T12:45:55.578Z,37.93
2022-08-07T12:46:55.540Z,38.13
2022-08-07T12:47:55.560Z,37.92
2022-08-07T12:48:55.520Z,37.90
2022-08-07T12:50:00.252Z,37.60
2022-08-07T12:50:57.541Z,37.30
2022-08-07T12:52:12.320Z,37.79
2022-08-07T12:52:56.489Z,37.73